Emery, Iowa
Current Conditions -  °F | °C
As of 2:53 AM on Saturday 25 Oct 2014 (Local Time) from KMCW Reporting Station
Clear Clear  
Wind Chill: 43°   Ceiling: Unl
Heat Index: 48°   Visibility: 10mi
Dew Point: 42°   Wind: 10mph
Humidity: 80%   Direction: 290°WNW
Pressure: 30"   Gusts: NA
Location:  43.1451°N, 93.1385°W
Report Text: KMCW 250753Z AUTO 29009KT 10SM CLR 09/06 A3000 RMK AO2 SLP155 T00890056
Loading
Personal Weather Stations






























Interactive Weather Map
Tropical Storm Tracking
New forecast layout! Learn more

10-Day Weather Forecast

Advertisements
Track Severe Weather on mobile